sensor_id;sensor_type;location;lat;lon;timestamp;P1;P2;P0
67714;PMS7003;54505;44.022;20.458;2022-11-18T00:01:16;159.00;126.50;71.00
67714;PMS7003;54505;44.022;20.458;2022-11-18T00:03:42;135.50;116.25;70.00
67714;PMS7003;54505;44.022;20.458;2022-11-18T00:06:27;135.50;113.75;73.00
67714;PMS7003;54505;44.022;20.458;2022-11-18T00:08:53;124.75;98.00;54.25
67714;PMS7003;54505;44.022;20.458;2022-11-18T00:11:20;135.00;114.00;70.75
67714;PMS7003;54505;44.022;20.458;2022-11-18T00:14:06;130.75;112.00;69.25
67714;PMS7003;54505;44.022;20.458;2022-11-18T00:16:54;130.50;103.50;67.75
67714;PMS7003;54505;44.022;20.458;2022-11-18T00:19:22;112.00;96.75;61.50
67714;PMS7003;54505;44.022;20.458;2022-11-18T00:21:48;115.50;96.50;61.00
67714;PMS7003;54505;44.022;20.458;2022-11-18T00:24:14;127.25;105.75;63.25
67714;PMS7003;54505;44.022;20.458;2022-11-18T00:26:40;124.25;101.75;60.75
67714;PMS7003;54505;44.022;20.458;2022-11-18T00:29:07;110.25;98.50;62.00
67714;PMS7003;54505;44.022;20.458;2022-11-18T00:31:33;115.75;103.50;62.75
67714;PMS7003;54505;44.022;20.458;2022-11-18T00:33:59;111.00;100.50;65.75
67714;PMS7003;54505;44.022;20.458;2022-11-18T00:36:25;122.25;104.00;65.75
67714;PMS7003;54505;44.022;20.458;2022-11-18T00:38:51;114.75;93.00;57.00
67714;PMS7003;54505;44.022;20.458;2022-11-18T00:41:16;105.75;93.00;57.00
67714;PMS7003;54505;44.022;20.458;2022-11-18T00:43:42;117.75;94.00;59.00
67714;PMS7003;54505;44.022;20.458;2022-11-18T00:46:08;114.25;98.25;64.75
67714;PMS7003;54505;44.022;20.458;2022-11-18T00:48:35;119.75;99.25;62.75
67714;PMS7003;54505;44.022;20.458;2022-11-18T00:51:12;130.25;109.75;67.50
67714;PMS7003;54505;44.022;20.458;2022-11-18T00:53:38;117.25;98.25;57.75
67714;PMS7003;54505;44.022;20.458;2022-11-18T00:56:03;129.50;106.00;62.25
67714;PMS7003;54505;44.022;20.458;2022-11-18T00:58:29;122.50;104.00;62.50
67714;PMS7003;54505;44.022;20.458;2022-11-18T01:00:54;125.00;101.75;62.00
67714;PMS7003;54505;44.022;20.458;2022-11-18T01:03:20;128.75;103.75;65.50
67714;PMS7003;54505;44.022;20.458;2022-11-18T01:05:46;119.00;103.50;63.25
67714;PMS7003;54505;44.022;20.458;2022-11-18T01:08:12;123.75;111.00;70.75
67714;PMS7003;54505;44.022;20.458;2022-11-18T01:10:38;155.00;129.25;81.75
67714;PMS7003;54505;44.022;20.458;2022-11-18T01:13:05;154.50;132.50;81.25
67714;PMS7003;54505;44.022;20.458;2022-11-18T01:15:46;187.00;153.75;92.25
67714;PMS7003;54505;44.022;20.458;2022-11-18T01:18:13;193.75;165.75;94.00
67714;PMS7003;54505;44.022;20.458;2022-11-18T01:20:38;173.75;137.75;80.50
67714;PMS7003;54505;44.022;20.458;2022-11-18T01:23:04;156.00;135.25;77.75
67714;PMS7003;54505;44.022;20.458;2022-11-18T01:25:30;103.75;90.25;57.25
67714;PMS7003;54505;44.022;20.458;2022-11-18T01:27:55;101.25;89.25;58.25
67714;PMS7003;54505;44.022;20.458;2022-11-18T01:30:21;100.25;84.25;50.50
67714;PMS7003;54505;44.022;20.458;2022-11-18T01:32:47;96.00;75.00;47.75
67714;PMS7003;54505;44.022;20.458;2022-11-18T01:35:13;88.75;68.50;44.50
67714;PMS7003;54505;44.022;20.458;2022-11-18T01:37:38;94.75;69.75;43.75
67714;PMS7003;54505;44.022;20.458;2022-11-18T01:40:05;86.75;68.50;44.50
67714;PMS7003;54505;44.022;20.458;2022-11-18T01:42:31;92.75;66.25;43.50
67714;PMS7003;54505;44.022;20.458;2022-11-18T01:47:27;88.25;66.50;44.00
67714;PMS7003;54505;44.022;20.458;2022-11-18T01:49:54;87.00;65.00;43.00
67714;PMS7003;54505;44.022;20.458;2022-11-18T01:52:20;102.00;79.50;53.50
67714;PMS7003;54505;44.022;20.458;2022-11-18T01:54:48;96.75;76.25;47.25
67714;PMS7003;54505;44.022;20.458;2022-11-18T01:57:17;113.25;90.25;54.50
67714;PMS7003;54505;44.022;20.458;2022-11-18T01:59:45;95.75;78.75;51.75
67714;PMS7003;54505;44.022;20.458;2022-11-18T02:02:13;100.25;77.25;46.75
67714;PMS7003;54505;44.022;20.458;2022-11-18T02:04:40;109.75;93.50;55.25
67714;PMS7003;54505;44.022;20.458;2022-11-18T02:07:06;60.50;34.75;0.00
67714;PMS7003;54505;44.022;20.458;2022-11-18T02:09:33;100.50;83.00;52.00
67714;PMS7003;54505;44.022;20.458;2022-11-18T02:12:00;98.50;77.75;48.50
67714;PMS7003;54505;44.022;20.458;2022-11-18T02:14:28;91.75;70.00;44.25
67714;PMS7003;54505;44.022;20.458;2022-11-18T02:17:13;96.25;74.25;46.50
67714;PMS7003;54505;44.022;20.458;2022-11-18T02:32:29;88.75;65.50;39.50
67714;PMS7003;54505;44.022;20.458;2022-11-18T02:34:59;92.00;70.25;45.00
67714;PMS7003;54505;44.022;20.458;2022-11-18T02:37:35;93.50;70.25;46.25
67714;PMS7003;54505;44.022;20.458;2022-11-18T02:40:06;92.75;67.75;45.25
67714;PMS7003;54505;44.022;20.458;2022-11-18T02:42:32;97.75;77.75;48.00
67714;PMS7003;54505;44.022;20.458;2022-11-18T02:45:02;97.75;82.50;49.75
67714;PMS7003;54505;44.022;20.458;2022-11-18T02:47:29;94.50;70.25;46.25
67714;PMS7003;54505;44.022;20.458;2022-11-18T02:49:57;89.75;70.00;45.75
67714;PMS7003;54505;44.022;20.458;2022-11-18T02:52:27;95.50;70.50;44.50
67714;PMS7003;54505;44.022;20.458;2022-11-18T02:54:53;87.75;67.00;44.00
67714;PMS7003;54505;44.022;20.458;2022-11-18T02:57:20;89.25;65.50;44.00
67714;PMS7003;54505;44.022;20.458;2022-11-18T02:59:47;92.25;74.00;46.25
67714;PMS7003;54505;44.022;20.458;2022-11-18T03:02:16;86.75;65.00;42.50
67714;PMS7003;54505;44.022;20.458;2022-11-18T03:04:43;86.75;62.25;43.00
67714;PMS7003;54505;44.022;20.458;2022-11-18T03:09:36;83.75;65.50;42.00
67714;PMS7003;54505;44.022;20.458;2022-11-18T03:12:21;88.00;65.50;40.75
67714;PMS7003;54505;44.022;20.458;2022-11-18T03:14:50;87.50;64.00;41.75
67714;PMS7003;54505;44.022;20.458;2022-11-18T03:17:30;80.25;59.25;39.75
67714;PMS7003;54505;44.022;20.458;2022-11-18T03:22:43;86.75;61.25;40.25
67714;PMS7003;54505;44.022;20.458;2022-11-18T03:27:46;88.25;64.25;42.50
67714;PMS7003;54505;44.022;20.458;2022-11-18T03:30:14;85.00;66.00;42.25
67714;PMS7003;54505;44.022;20.458;2022-11-18T03:32:42;88.50;68.50;45.00
67714;PMS7003;54505;44.022;20.458;2022-11-18T03:35:12;95.25;69.00;42.75
67714;PMS7003;54505;44.022;20.458;2022-11-18T03:37:41;93.50;73.50;45.00
67714;PMS7003;54505;44.022;20.458;2022-11-18T03:40:12;95.50;69.25;44.00
67714;PMS7003;54505;44.022;20.458;2022-11-18T03:42:43;93.25;75.50;45.50
67714;PMS7003;54505;44.022;20.458;2022-11-18T03:45:15;98.00;72.25;45.25
67714;PMS7003;54505;44.022;20.458;2022-11-18T03:47:42;91.75;69.00;44.50
67714;PMS7003;54505;44.022;20.458;2022-11-18T03:50:20;93.00;67.75;45.00
67714;PMS7003;54505;44.022;20.458;2022-11-18T03:52:47;91.00;67.75;45.25
67714;PMS7003;54505;44.022;20.458;2022-11-18T03:55:16;94.50;71.00;43.75
67714;PMS7003;54505;44.022;20.458;2022-11-18T04:00:09;85.50;67.25;43.00
67714;PMS7003;54505;44.022;20.458;2022-11-18T04:02:35;84.00;64.75;42.00
67714;PMS7003;54505;44.022;20.458;2022-11-18T04:05:03;82.50;62.50;42.00
67714;PMS7003;54505;44.022;20.458;2022-11-18T04:10:17;79.75;59.75;40.00
67714;PMS7003;54505;44.022;20.458;2022-11-18T04:13:03;83.00;60.00;39.00
67714;PMS7003;54505;44.022;20.458;2022-11-18T04:15:31;77.75;61.75;40.00
67714;PMS7003;54505;44.022;20.458;2022-11-18T04:17:57;86.50;65.00;41.25
67714;PMS7003;54505;44.022;20.458;2022-11-18T04:20:23;79.50;56.75;32.75
67714;PMS7003;54505;44.022;20.458;2022-11-18T04:22:49;86.75;68.00;44.75
67714;PMS7003;54505;44.022;20.458;2022-11-18T04:25:15;90.75;67.00;43.25
67714;PMS7003;54505;44.022;20.458;2022-11-18T04:27:40;86.50;64.75;43.50
67714;PMS7003;54505;44.022;20.458;2022-11-18T04:30:06;92.00;67.75;44.50
67714;PMS7003;54505;44.022;20.458;2022-11-18T04:32:32;107.00;83.50;54.00
67714;PMS7003;54505;44.022;20.458;2022-11-18T04:34:58;93.75;70.00;46.25
67714;PMS7003;54505;44.022;20.458;2022-11-18T04:37:24;98.25;76.50;48.00
67714;PMS7003;54505;44.022;20.458;2022-11-18T04:39:50;97.25;75.75;47.25
67714;PMS7003;54505;44.022;20.458;2022-11-18T04:42:15;94.50;75.00;46.25
67714;PMS7003;54505;44.022;20.458;2022-11-18T04:44:41;100.25;78.50;46.75
67714;PMS7003;54505;44.022;20.458;2022-11-18T04:47:07;86.75;67.50;45.00
67714;PMS7003;54505;44.022;20.458;2022-11-18T04:49:33;116.50;98.00;61.50
67714;PMS7003;54505;44.022;20.458;2022-11-18T04:51:59;83.75;62.50;40.00
67714;PMS7003;54505;44.022;20.458;2022-11-18T04:54:26;79.00;61.25;40.00
67714;PMS7003;54505;44.022;20.458;2022-11-18T04:56:52;77.00;57.50;37.75
67714;PMS7003;54505;44.022;20.458;2022-11-18T04:59:19;76.25;57.75;37.25
67714;PMS7003;54505;44.022;20.458;2022-11-18T05:01:46;72.75;57.75;37.25
67714;PMS7003;54505;44.022;20.458;2022-11-18T05:04:13;70.25;56.50;37.25
67714;PMS7003;54505;44.022;20.458;2022-11-18T05:06:39;85.00;62.50;41.25
67714;PMS7003;54505;44.022;20.458;2022-11-18T05:09:04;84.25;65.50;41.75
67714;PMS7003;54505;44.022;20.458;2022-11-18T05:11:31;79.75;60.75;39.75
67714;PMS7003;54505;44.022;20.458;2022-11-18T05:14:15;77.25;60.00;36.25
67714;PMS7003;54505;44.022;20.458;2022-11-18T05:16:41;81.50;61.25;39.25
67714;PMS7003;54505;44.022;20.458;2022-11-18T05:19:07;82.75;62.00;38.00
67714;PMS7003;54505;44.022;20.458;2022-11-18T05:21:33;62.25;52.50;36.00
67714;PMS7003;54505;44.022;20.458;2022-11-18T05:23:59;72.50;54.75;38.00
67714;PMS7003;54505;44.022;20.458;2022-11-18T05:26:25;78.75;60.50;38.00
67714;PMS7003;54505;44.022;20.458;2022-11-18T05:28:51;89.25;67.00;41.00
67714;PMS7003;54505;44.022;20.458;2022-11-18T05:31:17;90.50;66.25;42.25
67714;PMS7003;54505;44.022;20.458;2022-11-18T05:33:43;91.75;66.75;43.00
67714;PMS7003;54505;44.022;20.458;2022-11-18T05:36:10;96.00;69.25;43.25
67714;PMS7003;54505;44.022;20.458;2022-11-18T05:38:36;90.25;66.75;42.50
67714;PMS7003;54505;44.022;20.458;2022-11-18T05:41:02;87.25;64.25;42.75
67714;PMS7003;54505;44.022;20.458;2022-11-18T05:43:28;87.25;63.25;40.75
67714;PMS7003;54505;44.022;20.458;2022-11-18T05:45:54;86.00;65.00;41.00
67714;PMS7003;54505;44.022;20.458;2022-11-18T05:48:20;78.75;62.25;39.50
67714;PMS7003;54505;44.022;20.458;2022-11-18T05:50:46;100.25;76.00;49.50
67714;PMS7003;54505;44.022;20.458;2022-11-18T05:53:13;97.75;75.75;49.50
67714;PMS7003;54505;44.022;20.458;2022-11-18T05:55:39;94.50;70.25;44.25
67714;PMS7003;54505;44.022;20.458;2022-11-18T05:58:06;101.00;79.75;47.75
67714;PMS7003;54505;44.022;20.458;2022-11-18T06:00:32;100.00;80.25;51.00
67714;PMS7003;54505;44.022;20.458;2022-11-18T06:02:58;89.50;67.50;47.25
67714;PMS7003;54505;44.022;20.458;2022-11-18T06:05:24;43.00;31.75;12.75
67714;PMS7003;54505;44.022;20.458;2022-11-18T06:07:50;104.00;85.00;51.50
67714;PMS7003;54505;44.022;20.458;2022-11-18T06:10:22;97.00;77.25;46.50
67714;PMS7003;54505;44.022;20.458;2022-11-18T06:12:50;94.00;69.00;45.75
67714;PMS7003;54505;44.022;20.458;2022-11-18T06:15:24;105.00;84.00;54.75
67714;PMS7003;54505;44.022;20.458;2022-11-18T06:17:52;101.50;84.00;51.50
67714;PMS7003;54505;44.022;20.458;2022-11-18T06:20:19;102.25;74.25;46.00
67714;PMS7003;54505;44.022;20.458;2022-11-18T06:22:46;94.00;71.50;44.00
67714;PMS7003;54505;44.022;20.458;2022-11-18T06:25:12;95.00;72.25;46.50
67714;PMS7003;54505;44.022;20.458;2022-11-18T06:27:38;163.75;141.00;100.25
67714;PMS7003;54505;44.022;20.458;2022-11-18T06:30:07;105.75;86.50;52.75
67714;PMS7003;54505;44.022;20.458;2022-11-18T06:32:33;93.50;70.50;45.00
67714;PMS7003;54505;44.022;20.458;2022-11-18T06:34:58;90.00;67.50;44.00
67714;PMS7003;54505;44.022;20.458;2022-11-18T06:37:24;88.50;66.00;43.50
67714;PMS7003;54505;44.022;20.458;2022-11-18T06:39:50;87.25;66.25;42.00
67714;PMS7003;54505;44.022;20.458;2022-11-18T06:42:15;80.75;63.00;40.50
67714;PMS7003;54505;44.022;20.458;2022-11-18T06:45:00;87.75;64.00;39.75
67714;PMS7003;54505;44.022;20.458;2022-11-18T06:47:27;81.25;60.75;40.25
67714;PMS7003;54505;44.022;20.458;2022-11-18T06:49:52;77.25;57.75;39.00
67714;PMS7003;54505;44.022;20.458;2022-11-18T06:52:18;82.50;63.00;40.25
67714;PMS7003;54505;44.022;20.458;2022-11-18T06:54:44;82.75;63.00;39.25
67714;PMS7003;54505;44.022;20.458;2022-11-18T06:57:10;88.00;64.50;40.00
67714;PMS7003;54505;44.022;20.458;2022-11-18T06:59:35;87.75;64.25;39.75
67714;PMS7003;54505;44.022;20.458;2022-11-18T07:02:01;74.75;58.25;37.25
67714;PMS7003;54505;44.022;20.458;2022-11-18T07:04:26;93.25;72.75;44.25
67714;PMS7003;54505;44.022;20.458;2022-11-18T07:06:52;91.50;67.00;40.50
67714;PMS7003;54505;44.022;20.458;2022-11-18T07:09:18;95.00;78.50;52.25
67714;PMS7003;54505;44.022;20.458;2022-11-18T07:11:43;115.25;96.25;53.75
67714;PMS7003;54505;44.022;20.458;2022-11-18T07:14:09;123.75;99.25;62.25
67714;PMS7003;54505;44.022;20.458;2022-11-18T07:16:35;135.00;112.25;60.75
67714;PMS7003;54505;44.022;20.458;2022-11-18T07:19:01;117.50;98.50;60.00
67714;PMS7003;54505;44.022;20.458;2022-11-18T07:21:32;106.25;87.75;56.25
67714;PMS7003;54505;44.022;20.458;2022-11-18T07:23:57;128.00;112.00;68.75
67714;PMS7003;54505;44.022;20.458;2022-11-18T07:26:23;99.75;75.25;44.25
67714;PMS7003;54505;44.022;20.458;2022-11-18T07:28:48;110.50;84.25;47.25
67714;PMS7003;54505;44.022;20.458;2022-11-18T07:31:17;97.00;75.50;45.25
67714;PMS7003;54505;44.022;20.458;2022-11-18T07:33:43;91.75;69.25;43.75
67714;PMS7003;54505;44.022;20.458;2022-11-18T07:36:13;91.50;68.00;39.50
67714;PMS7003;54505;44.022;20.458;2022-11-18T07:38:39;103.00;78.75;46.00
67714;PMS7003;54505;44.022;20.458;2022-11-18T07:41:06;102.00;79.75;47.25
67714;PMS7003;54505;44.022;20.458;2022-11-18T07:43:33;96.75;69.50;46.00
67714;PMS7003;54505;44.022;20.458;2022-11-18T07:46:07;92.00;70.25;43.25
67714;PMS7003;54505;44.022;20.458;2022-11-18T07:48:32;91.75;70.25;43.50
67714;PMS7003;54505;44.022;20.458;2022-11-18T07:51:02;99.00;75.25;42.00
67714;PMS7003;54505;44.022;20.458;2022-11-18T07:53:30;90.00;71.25;43.25
67714;PMS7003;54505;44.022;20.458;2022-11-18T07:55:56;96.00;76.25;45.50
67714;PMS7003;54505;44.022;20.458;2022-11-18T07:58:22;93.00;73.75;47.75
67714;PMS7003;54505;44.022;20.458;2022-11-18T08:00:48;94.00;73.00;47.75
67714;PMS7003;54505;44.022;20.458;2022-11-18T08:03:14;101.25;78.75;47.75
67714;PMS7003;54505;44.022;20.458;2022-11-18T08:05:40;104.75;86.00;47.75
67714;PMS7003;54505;44.022;20.458;2022-11-18T08:08:05;98.75;82.50;51.00
67714;PMS7003;54505;44.022;20.458;2022-11-18T08:10:31;95.50;78.75;51.75
67714;PMS7003;54505;44.022;20.458;2022-11-18T08:12:57;96.75;85.50;52.75
67714;PMS7003;54505;44.022;20.458;2022-11-18T08:15:23;102.00;86.25;52.25
67714;PMS7003;54505;44.022;20.458;2022-11-18T08:17:48;107.00;94.50;56.00
67714;PMS7003;54505;44.022;20.458;2022-11-18T08:20:14;107.25;88.75;56.25
67714;PMS7003;54505;44.022;20.458;2022-11-18T08:22:40;124.00;100.25;68.00
67714;PMS7003;54505;44.022;20.458;2022-11-18T08:25:06;109.25;92.75;63.25
67714;PMS7003;54505;44.022;20.458;2022-11-18T08:27:31;110.25;93.00;57.50
67714;PMS7003;54505;44.022;20.458;2022-11-18T08:29:57;115.50;88.00;53.00
67714;PMS7003;54505;44.022;20.458;2022-11-18T08:32:23;128.25;107.00;63.25
67714;PMS7003;54505;44.022;20.458;2022-11-18T08:34:49;130.75;108.50;59.25
67714;PMS7003;54505;44.022;20.458;2022-11-18T08:37:15;159.50;140.25;84.75
67714;PMS7003;54505;44.022;20.458;2022-11-18T08:39:40;138.75;112.50;68.00
67714;PMS7003;54505;44.022;20.458;2022-11-18T08:42:06;105.50;90.00;55.50
67714;PMS7003;54505;44.022;20.458;2022-11-18T08:44:32;98.50;85.75;49.75
67714;PMS7003;54505;44.022;20.458;2022-11-18T08:46:59;95.50;80.50;46.00
67714;PMS7003;54505;44.022;20.458;2022-11-18T08:49:25;88.50;74.00;48.25
67714;PMS7003;54505;44.022;20.458;2022-11-18T08:51:50;85.75;70.50;42.25
67714;PMS7003;54505;44.022;20.458;2022-11-18T08:54:16;95.00;81.50;50.75
67714;PMS7003;54505;44.022;20.458;2022-11-18T08:56:41;96.00;80.50;50.00
67714;PMS7003;54505;44.022;20.458;2022-11-18T08:59:07;104.00;86.25;51.50
67714;PMS7003;54505;44.022;20.458;2022-11-18T09:01:34;116.00;97.00;61.00
67714;PMS7003;54505;44.022;20.458;2022-11-18T09:04:00;131.00;112.25;70.00
67714;PMS7003;54505;44.022;20.458;2022-11-18T09:06:26;124.75;99.25;60.50
67714;PMS7003;54505;44.022;20.458;2022-11-18T09:08:52;126.75;111.75;63.75
67714;PMS7003;54505;44.022;20.458;2022-11-18T09:11:18;118.00;94.00;57.00
67714;PMS7003;54505;44.022;20.458;2022-11-18T09:13:45;91.50;78.25;51.50
67714;PMS7003;54505;44.022;20.458;2022-11-18T09:16:11;93.25;77.00;48.50
67714;PMS7003;54505;44.022;20.458;2022-11-18T09:18:36;90.25;78.75;48.25
67714;PMS7003;54505;44.022;20.458;2022-11-18T09:21:03;90.75;76.25;47.75
67714;PMS7003;54505;44.022;20.458;2022-11-18T09:23:30;85.75;70.75;45.00
67714;PMS7003;54505;44.022;20.458;2022-11-18T09:25:56;102.50;88.25;53.50
67714;PMS7003;54505;44.022;20.458;2022-11-18T09:28:22;80.00;65.75;42.25
67714;PMS7003;54505;44.022;20.458;2022-11-18T09:30:48;83.75;70.25;45.00
67714;PMS7003;54505;44.022;20.458;2022-11-18T09:33:13;80.50;66.25;41.50
67714;PMS7003;54505;44.022;20.458;2022-11-18T09:35:43;80.75;67.00;43.50
67714;PMS7003;54505;44.022;20.458;2022-11-18T09:38:08;87.50;80.50;50.25
67714;PMS7003;54505;44.022;20.458;2022-11-18T09:40:36;85.75;71.00;46.75
67714;PMS7003;54505;44.022;20.458;2022-11-18T09:43:34;77.00;59.25;38.75
67714;PMS7003;54505;44.022;20.458;2022-11-18T09:45:55;77.25;58.00;37.50
67714;PMS7003;54505;44.022;20.458;2022-11-18T09:48:23;72.50;55.00;35.50
67714;PMS7003;54505;44.022;20.458;2022-11-18T09:51:10;62.50;49.25;33.00
67714;PMS7003;54505;44.022;20.458;2022-11-18T09:53:36;65.75;52.00;34.50
67714;PMS7003;54505;44.022;20.458;2022-11-18T09:56:04;72.00;53.50;34.50
67714;PMS7003;54505;44.022;20.458;2022-11-18T09:58:33;62.75;48.75;31.00
67714;PMS7003;54505;44.022;20.458;2022-11-18T10:01:01;65.00;49.00;31.75
67714;PMS7003;54505;44.022;20.458;2022-11-18T10:03:27;62.50;47.50;31.00
67714;PMS7003;54505;44.022;20.458;2022-11-18T10:08:27;58.75;45.75;31.00
67714;PMS7003;54505;44.022;20.458;2022-11-18T10:11:00;59.00;47.50;31.00
67714;PMS7003;54505;44.022;20.458;2022-11-18T10:18:46;59.25;45.25;29.00
67714;PMS7003;54505;44.022;20.458;2022-11-18T10:21:35;68.00;53.25;36.25
67714;PMS7003;54505;44.022;20.458;2022-11-18T10:24:13;69.75;52.25;35.50
67714;PMS7003;54505;44.022;20.458;2022-11-18T10:26:42;67.50;54.00;36.00
67714;PMS7003;54505;44.022;20.458;2022-11-18T10:29:07;77.75;60.00;39.50
67714;PMS7003;54505;44.022;20.458;2022-11-18T10:31:36;79.00;61.25;42.00
67714;PMS7003;54505;44.022;20.458;2022-11-18T10:34:01;81.00;63.00;41.75
67714;PMS7003;54505;44.022;20.458;2022-11-18T10:36:29;73.50;57.00;36.75
67714;PMS7003;54505;44.022;20.458;2022-11-18T10:39:04;76.25;60.00;41.75
67714;PMS7003;54505;44.022;20.458;2022-11-18T10:41:35;70.50;54.75;36.75
67714;PMS7003;54505;44.022;20.458;2022-11-18T10:44:02;70.00;55.00;38.00
67714;PMS7003;54505;44.022;20.458;2022-11-18T10:51:35;85.00;74.25;46.50
67714;PMS7003;54505;44.022;20.458;2022-11-18T10:54:08;90.25;83.00;51.75
67714;PMS7003;54505;44.022;20.458;2022-11-18T11:02:16;70.50;56.75;36.25
67714;PMS7003;54505;44.022;20.458;2022-11-18T11:04:43;61.75;49.75;34.00
67714;PMS7003;54505;44.022;20.458;2022-11-18T11:07:29;60.25;47.00;30.50
67714;PMS7003;54505;44.022;20.458;2022-11-18T11:12:31;70.25;54.75;36.00
67714;PMS7003;54505;44.022;20.458;2022-11-18T11:15:20;70.25;54.75;34.25
67714;PMS7003;54505;44.022;20.458;2022-11-18T11:17:53;66.00;52.00;34.50
67714;PMS7003;54505;44.022;20.458;2022-11-18T11:20:40;76.00;57.75;38.00
67714;PMS7003;54505;44.022;20.458;2022-11-18T11:23:09;75.50;58.00;38.00
67714;PMS7003;54505;44.022;20.458;2022-11-18T11:25:49;69.25;53.50;35.00
67714;PMS7003;54505;44.022;20.458;2022-11-18T11:28:30;72.00;57.00;39.00
67714;PMS7003;54505;44.022;20.458;2022-11-18T11:31:13;69.75;54.50;36.50
67714;PMS7003;54505;44.022;20.458;2022-11-18T11:38:54;67.25;53.00;36.75
67714;PMS7003;54505;44.022;20.458;2022-11-18T11:48:45;33.00;28.25;19.75
67714;PMS7003;54505;44.022;20.458;2022-11-18T11:56:57;20.50;18.75;13.25
67714;PMS7003;54505;44.022;20.458;2022-11-18T12:04:50;25.00;19.75;14.25
67714;PMS7003;54505;44.022;20.458;2022-11-18T12:07:27;14.25;11.75;8.50
67714;PMS7003;54505;44.022;20.458;2022-11-18T12:18:15;36.25;31.25;22.25
67714;PMS7003;54505;44.022;20.458;2022-11-18T12:20:45;32.75;28.75;20.25
67714;PMS7003;54505;44.022;20.458;2022-11-18T12:25:56;38.25;34.00;24.00
67714;PMS7003;54505;44.022;20.458;2022-11-18T12:33:43;50.75;37.25;25.00
67714;PMS7003;54505;44.022;20.458;2022-11-18T12:36:23;51.25;38.00;26.25
67714;PMS7003;54505;44.022;20.458;2022-11-18T12:38:49;52.25;41.50;29.00
67714;PMS7003;54505;44.022;20.458;2022-11-18T12:44:21;42.75;33.00;21.75
67714;PMS7003;54505;44.022;20.458;2022-11-18T12:46:47;28.75;26.25;18.00
67714;PMS7003;54505;44.022;20.458;2022-11-18T12:51:45;21.50;21.25;17.00
67714;PMS7003;54505;44.022;20.458;2022-11-18T12:54:19;40.50;34.00;22.50
67714;PMS7003;54505;44.022;20.458;2022-11-18T12:56:47;38.50;33.25;23.00
67714;PMS7003;54505;44.022;20.458;2022-11-18T12:59:14;49.50;38.50;24.25
67714;PMS7003;54505;44.022;20.458;2022-11-18T13:01:39;48.00;40.00;27.25
67714;PMS7003;54505;44.022;20.458;2022-11-18T13:04:07;53.25;42.00;29.00
67714;PMS7003;54505;44.022;20.458;2022-11-18T13:06:33;62.50;47.25;33.00
67714;PMS7003;54505;44.022;20.458;2022-11-18T13:09:01;73.75;55.50;36.50
67714;PMS7003;54505;44.022;20.458;2022-11-18T13:11:29;69.00;54.00;34.50
67714;PMS7003;54505;44.022;20.458;2022-11-18T13:14:22;62.25;46.50;29.00
67714;PMS7003;54505;44.022;20.458;2022-11-18T13:20:17;76.50;55.75;36.50
67714;PMS7003;54505;44.022;20.458;2022-11-18T13:22:48;72.75;57.00;36.25
67714;PMS7003;54505;44.022;20.458;2022-11-18T13:25:32;72.00;55.00;36.25
67714;PMS7003;54505;44.022;20.458;2022-11-18T13:28:02;70.75;55.00;36.00
67714;PMS7003;54505;44.022;20.458;2022-11-18T13:30:31;66.00;50.25;32.75
67714;PMS7003;54505;44.022;20.458;2022-11-18T13:32:58;65.25;51.00;33.50
67714;PMS7003;54505;44.022;20.458;2022-11-18T13:35:24;60.25;48.00;31.75
67714;PMS7003;54505;44.022;20.458;2022-11-18T13:37:52;62.50;47.50;30.00
67714;PMS7003;54505;44.022;20.458;2022-11-18T13:40:27;61.00;46.75;30.75
67714;PMS7003;54505;44.022;20.458;2022-11-18T13:42:52;62.50;48.50;31.00
67714;PMS7003;54505;44.022;20.458;2022-11-18T13:45:18;70.50;54.00;34.25
67714;PMS7003;54505;44.022;20.458;2022-11-18T13:50:13;68.00;52.25;34.25
67714;PMS7003;54505;44.022;20.458;2022-11-18T13:52:42;71.00;54.00;35.25
67714;PMS7003;54505;44.022;20.458;2022-11-18T13:57:38;64.50;50.25;33.75
67714;PMS7003;54505;44.022;20.458;2022-11-18T14:00:05;66.25;51.75;33.00
67714;PMS7003;54505;44.022;20.458;2022-11-18T14:02:31;61.00;46.75;33.00
67714;PMS7003;54505;44.022;20.458;2022-11-18T14:05:02;57.50;46.50;30.00
67714;PMS7003;54505;44.022;20.458;2022-11-18T14:07:30;51.00;34.50;19.00
67714;PMS7003;54505;44.022;20.458;2022-11-18T14:09:58;68.50;52.00;34.50
67714;PMS7003;54505;44.022;20.458;2022-11-18T14:12:26;71.50;55.00;36.25
67714;PMS7003;54505;44.022;20.458;2022-11-18T14:15:11;79.25;63.00;42.00
67714;PMS7003;54505;44.022;20.458;2022-11-18T14:17:37;81.25;69.50;44.50
67714;PMS7003;54505;44.022;20.458;2022-11-18T14:20:06;73.25;56.75;37.00
67714;PMS7003;54505;44.022;20.458;2022-11-18T14:22:32;76.75;55.50;36.00
67714;PMS7003;54505;44.022;20.458;2022-11-18T14:24:59;79.75;62.50;38.75
67714;PMS7003;54505;44.022;20.458;2022-11-18T14:27:36;81.50;62.00;40.50
67714;PMS7003;54505;44.022;20.458;2022-11-18T14:35:32;63.00;49.75;33.00
67714;PMS7003;54505;44.022;20.458;2022-11-18T14:37:57;54.25;44.75;29.75
67714;PMS7003;54505;44.022;20.458;2022-11-18T14:40:23;54.50;44.50;30.25
67714;PMS7003;54505;44.022;20.458;2022-11-18T14:42:49;59.75;48.00;32.25
67714;PMS7003;54505;44.022;20.458;2022-11-18T14:45:14;58.50;46.00;30.75
67714;PMS7003;54505;44.022;20.458;2022-11-18T14:47:40;59.25;46.00;31.25
67714;PMS7003;54505;44.022;20.458;2022-11-18T14:50:12;61.50;46.75;31.00
67714;PMS7003;54505;44.022;20.458;2022-11-18T14:52:38;61.75;48.00;31.50
67714;PMS7003;54505;44.022;20.458;2022-11-18T14:55:04;56.75;45.75;30.00
67714;PMS7003;54505;44.022;20.458;2022-11-18T14:57:29;55.50;42.50;26.75
67714;PMS7003;54505;44.022;20.458;2022-11-18T14:59:55;33.25;29.00;21.50
67714;PMS7003;54505;44.022;20.458;2022-11-18T15:02:21;23.50;20.00;15.25
67714;PMS7003;54505;44.022;20.458;2022-11-18T15:04:47;14.50;11.75;7.75
67714;PMS7003;54505;44.022;20.458;2022-11-18T15:07:14;8.50;8.50;6.75
67714;PMS7003;54505;44.022;20.458;2022-11-18T15:09:40;18.50;12.00;8.50
67714;PMS7003;54505;44.022;20.458;2022-11-18T15:12:06;12.50;8.50;7.00
67714;PMS7003;54505;44.022;20.458;2022-11-18T15:14:32;4.50;2.00;2.00
67714;PMS7003;54505;44.022;20.458;2022-11-18T15:16:59;16.75;12.25;9.25
67714;PMS7003;54505;44.022;20.458;2022-11-18T15:19:25;19.50;13.00;9.00
67714;PMS7003;54505;44.022;20.458;2022-11-18T15:21:51;21.75;15.00;10.00
67714;PMS7003;54505;44.022;20.458;2022-11-18T15:24:17;25.00;20.75;15.75
67714;PMS7003;54505;44.022;20.458;2022-11-18T15:26:43;34.50;26.50;19.00